createdAt,value
2019-05-20T00:03:52.037Z,15.67
2019-05-20T00:08:58.035Z,15.61
2019-05-20T00:14:04.138Z,15.63
2019-05-20T00:19:10.150Z,15.65
2019-05-20T00:24:16.224Z,15.62
2019-05-20T00:29:22.300Z,15.62
2019-05-20T00:34:35.330Z,15.53
2019-05-20T00:39:35.341Z,15.57
2019-05-20T00:44:41.652Z,15.75
2019-05-20T00:49:47.576Z,15.65
2019-05-20T00:54:54.097Z,15.58
2019-05-20T01:00:00.070Z,15.49
2019-05-20T01:05:06.659Z,15.43
2019-05-20T01:10:13.513Z,15.36
2019-05-20T01:15:20.136Z,15.34
2019-05-20T01:20:26.314Z,15.34
2019-05-20T01:25:32.384Z,15.43
2019-05-20T01:30:38.277Z,15.43
2019-05-20T01:35:44.117Z,15.50
2019-05-20T01:40:50.092Z,15.62
2019-05-20T01:45:56.062Z,15.55
2019-05-20T01:51:02.033Z,15.46
2019-05-20T01:56:08.107Z,15.43
2019-05-20T02:01:13.977Z,15.47
2019-05-20T02:06:20.055Z,15.46
2019-05-20T02:11:26.123Z,15.48
2019-05-20T02:16:32.191Z,15.44
2019-05-20T02:21:38.273Z,15.44
2019-05-20T02:26:44.340Z,15.34
2019-05-20T02:31:50.412Z,15.22
2019-05-20T02:36:56.391Z,15.17
2019-05-20T02:42:02.458Z,15.15
2019-05-20T02:47:08.328Z,15.14
2019-05-20T02:52:14.297Z,15.19
2019-05-20T02:57:20.987Z,15.22
2019-05-20T03:02:26.957Z,15.27
2019-05-20T03:07:32.938Z,15.43
2019-05-20T03:12:38.900Z,15.52
2019-05-20T03:17:44.773Z,15.60
2019-05-20T03:22:50.737Z,15.64
2019-05-20T03:27:57.631Z,15.72
2019-05-20T03:33:03.819Z,15.82
2019-05-20T03:38:10.598Z,15.85
2019-05-20T03:43:16.669Z,16.00
2019-05-20T03:48:22.641Z,16.10
2019-05-20T03:53:28.720Z,16.21
2019-05-20T03:58:34.992Z,16.32
2019-05-20T04:03:40.965Z,16.46
2019-05-20T04:08:47.043Z,16.74
2019-05-20T04:13:53.010Z,16.97
2019-05-20T04:18:58.974Z,17.36
2019-05-20T04:24:05.551Z,18.13
2019-05-20T04:29:12.151Z,18.87
2019-05-20T04:34:18.130Z,19.40
2019-05-20T04:39:24.192Z,19.87
2019-05-20T04:44:30.181Z,20.12
2019-05-20T04:49:36.138Z,20.48
2019-05-20T04:54:42.207Z,20.84
2019-05-20T04:59:48.283Z,20.64
2019-05-20T05:04:54.265Z,20.72
2019-05-20T05:10:00.434Z,20.86
2019-05-20T05:15:11.454Z,20.69
2019-05-20T05:20:18.769Z,21.04
2019-05-20T05:25:26.529Z,20.95
2019-05-20T05:30:32.640Z,20.78
2019-05-20T05:35:52.273Z,20.87
2019-05-20T05:40:45.546Z,20.99
2019-05-20T05:45:51.592Z,21.48
2019-05-20T05:50:57.717Z,21.45
2019-05-20T05:56:03.892Z,21.44
2019-05-20T06:01:09.861Z,21.21
2019-05-20T06:06:15.834Z,21.48
2019-05-20T06:11:21.836Z,21.57
2019-05-20T06:16:36.656Z,21.94
2019-05-20T06:21:35.590Z,22.40
2019-05-20T06:26:41.665Z,22.47
2019-05-20T06:31:47.936Z,22.67
2019-05-20T06:36:55.913Z,22.60
2019-05-20T06:42:01.930Z,22.89
2019-05-20T06:47:08.000Z,23.00
2019-05-20T06:52:14.083Z,22.46
2019-05-20T06:57:20.119Z,22.40
2019-05-20T07:02:26.848Z,22.80
2019-05-20T07:07:32.913Z,22.82
2019-05-20T07:12:41.587Z,22.13
2019-05-20T07:17:45.665Z,22.03
2019-05-20T07:22:55.742Z,21.96
2019-05-20T07:27:59.870Z,22.05
2019-05-20T07:33:06.019Z,22.15
2019-05-20T07:38:11.763Z,22.10
2019-05-20T07:43:17.883Z,22.21
2019-05-20T07:48:24.726Z,22.37
2019-05-20T07:53:32.489Z,22.45
2019-05-20T07:58:38.778Z,22.55
2019-05-20T08:03:44.741Z,22.33
2019-05-20T08:08:51.146Z,22.28
2019-05-20T08:13:57.084Z,22.56
2019-05-20T08:19:03.160Z,22.61
2019-05-20T08:24:09.365Z,23.02
2019-05-20T08:29:17.048Z,23.30
2019-05-20T08:34:23.344Z,23.37
2019-05-20T08:39:30.839Z,23.31
2019-05-20T08:44:36.868Z,23.46
2019-05-20T08:49:43.483Z,23.51
2019-05-20T08:54:50.184Z,23.53
2019-05-20T08:59:56.148Z,23.69
2019-05-20T09:05:02.147Z,23.74
2019-05-20T09:10:08.827Z,23.78
2019-05-20T09:15:15.657Z,23.81
2019-05-20T09:20:22.119Z,24.33
2019-05-20T09:25:33.284Z,24.69
2019-05-20T09:30:39.520Z,25.03
2019-05-20T09:35:47.181Z,25.59
2019-05-20T09:40:53.441Z,25.56
2019-05-20T09:46:07.706Z,25.24
2019-05-20T09:51:07.334Z,25.21
2019-05-20T09:56:13.504Z,25.77
2019-05-20T10:01:19.519Z,26.06
2019-05-20T10:06:25.575Z,25.94
2019-05-20T10:11:31.765Z,25.55
2019-05-20T10:16:37.701Z,25.62
2019-05-20T10:21:43.954Z,25.82
2019-05-20T10:26:49.947Z,26.17
2019-05-20T10:31:56.124Z,26.27
2019-05-20T10:37:03.532Z,25.96
2019-05-20T10:42:09.500Z,26.23
2019-05-20T10:47:15.588Z,26.15
2019-05-20T10:52:22.974Z,26.01
2019-05-20T10:57:28.961Z,26.64
2019-05-20T11:02:35.038Z,26.70
2019-05-20T11:07:41.358Z,26.46
2019-05-20T11:12:47.489Z,26.64
2019-05-20T11:17:53.647Z,27.14
2019-05-20T11:23:01.171Z,27.25
2019-05-20T11:28:11.678Z,27.01
2019-05-20T11:33:15.753Z,27.21
2019-05-20T11:38:22.049Z,27.47
2019-05-20T11:43:28.439Z,27.70
2019-05-20T11:48:34.892Z,27.60
2019-05-20T11:53:40.969Z,27.56
2019-05-20T11:58:47.075Z,27.67
2019-05-20T12:03:53.213Z,27.46
2019-05-20T12:08:59.505Z,27.74
2019-05-20T12:14:06.184Z,28.13
2019-05-20T12:19:12.163Z,28.00
2019-05-20T12:24:18.231Z,27.77
2019-05-20T12:29:24.305Z,27.89
2019-05-20T12:34:30.373Z,27.58
2019-05-20T12:39:36.374Z,26.88
2019-05-20T12:44:42.835Z,26.36
2019-05-20T12:49:49.012Z,26.08
2019-05-20T12:55:07.050Z,25.79
2019-05-20T13:00:03.325Z,25.58
2019-05-20T13:05:10.408Z,25.30
2019-05-20T13:10:29.178Z,25.06
2019-05-20T13:15:25.318Z,24.83
2019-05-20T13:20:31.543Z,24.61
2019-05-20T13:25:37.763Z,24.43
2019-05-20T13:30:43.943Z,24.12
2019-05-20T13:35:50.226Z,23.99
2019-05-20T13:40:56.289Z,23.80
2019-05-20T13:46:02.466Z,23.75
2019-05-20T13:51:08.742Z,23.60
2019-05-20T13:56:15.017Z,23.62
2019-05-20T14:01:21.198Z,23.58
2019-05-20T14:06:28.918Z,23.64
2019-05-20T14:11:35.035Z,23.69
2019-05-20T14:16:41.373Z,23.98
2019-05-20T14:21:47.781Z,24.10
2019-05-20T14:26:53.942Z,24.40
2019-05-20T14:31:59.989Z,25.08
2019-05-20T14:37:06.303Z,25.27
2019-05-20T14:42:12.625Z,25.63
2019-05-20T14:47:18.845Z,25.50
2019-05-20T14:52:25.332Z,25.31
2019-05-20T14:57:31.592Z,25.37
2019-05-20T15:02:37.879Z,25.46
2019-05-20T15:07:44.262Z,25.36
2019-05-20T15:12:51.091Z,25.24
2019-05-20T15:17:57.518Z,25.20
2019-05-20T15:23:03.700Z,25.19
2019-05-20T15:28:10.181Z,25.31
2019-05-20T15:33:16.350Z,25.60
2019-05-20T15:38:22.422Z,25.81
2019-05-20T15:43:28.852Z,25.81
2019-05-20T15:48:34.830Z,25.76
2019-05-20T15:53:40.931Z,25.66
2019-05-20T15:58:47.223Z,25.54
2019-05-20T16:03:53.855Z,25.35
2019-05-20T16:09:00.191Z,25.14
2019-05-20T16:14:06.844Z,24.85
2019-05-20T16:19:12.955Z,24.68
2019-05-20T16:24:19.046Z,24.46
2019-05-20T16:29:25.325Z,24.32
2019-05-20T16:34:31.605Z,24.22
2019-05-20T16:39:37.762Z,24.15
2019-05-20T16:44:44.078Z,24.11
2019-05-20T16:49:50.144Z,24.04
2019-05-20T16:54:56.160Z,23.93
2019-05-20T17:00:02.261Z,24.05
2019-05-20T17:05:09.844Z,24.11
2019-05-20T17:10:16.365Z,24.24
2019-05-20T17:15:23.029Z,24.16
2019-05-20T17:20:29.020Z,24.59
2019-05-20T17:25:35.139Z,24.78
2019-05-20T17:30:45.548Z,24.46
2019-05-20T17:35:49.290Z,24.09
2019-05-20T17:40:55.704Z,23.77
2019-05-20T17:46:01.731Z,23.48
2019-05-20T17:51:08.470Z,23.39
2019-05-20T17:56:14.796Z,23.33
2019-05-20T18:01:20.869Z,23.31
2019-05-20T18:06:26.747Z,23.18
2019-05-20T18:11:32.814Z,22.95
2019-05-20T18:16:39.176Z,22.78
2019-05-20T18:21:45.314Z,22.59
2019-05-20T18:26:52.492Z,22.44
2019-05-20T18:31:58.747Z,22.37
2019-05-20T18:37:04.786Z,22.20
2019-05-20T18:42:11.500Z,22.07
2019-05-20T18:47:17.702Z,22.00
2019-05-20T18:52:23.915Z,21.89
2019-05-20T18:57:30.042Z,21.76
2019-05-20T19:02:36.209Z,21.44
2019-05-20T19:07:42.732Z,21.25
2019-05-20T19:12:48.999Z,21.33
2019-05-20T19:17:55.447Z,21.49
2019-05-20T19:23:01.598Z,21.52
2019-05-20T19:28:07.870Z,21.57
2019-05-20T19:33:14.917Z,21.53
2019-05-20T19:38:21.087Z,21.49
2019-05-20T19:43:27.045Z,21.34
2019-05-20T19:48:33.053Z,21.35
2019-05-20T19:53:39.102Z,21.31
2019-05-20T19:58:45.415Z,21.36
2019-05-20T20:03:51.442Z,21.34
2019-05-20T20:08:57.612Z,21.38
2019-05-20T20:14:03.788Z,21.32
2019-05-20T20:19:10.068Z,21.15
2019-05-20T20:24:16.143Z,21.16
2019-05-20T20:29:22.226Z,21.21
2019-05-20T20:34:30.700Z,21.21
2019-05-20T20:39:36.719Z,21.16
2019-05-20T20:44:42.788Z,21.17
2019-05-20T20:49:48.760Z,21.19
2019-05-20T20:54:54.937Z,21.25
2019-05-20T21:00:00.699Z,21.23
2019-05-20T21:05:07.797Z,21.15
2019-05-20T21:10:14.292Z,21.07
2019-05-20T21:15:20.353Z,21.02
2019-05-20T21:20:26.426Z,20.91
2019-05-20T21:25:32.398Z,20.78
2019-05-20T21:30:38.369Z,20.74
2019-05-20T21:35:45.528Z,20.63
2019-05-20T21:40:51.684Z,20.46
2019-05-20T21:45:57.614Z,20.60
2019-05-20T21:51:03.684Z,20.50
2019-05-20T21:56:09.557Z,20.35
2019-05-20T22:01:15.557Z,20.32
2019-05-20T22:06:21.700Z,20.27
2019-05-20T22:11:27.670Z,20.37
2019-05-20T22:16:33.848Z,20.38
2019-05-20T22:21:41.967Z,20.33
2019-05-20T22:26:47.939Z,20.24
2019-05-20T22:31:53.905Z,20.15
2019-05-20T22:36:59.881Z,20.09
2019-05-20T22:42:05.954Z,20.07
2019-05-20T22:47:12.034Z,19.97
2019-05-20T22:52:18.034Z,19.83
2019-05-20T22:57:23.980Z,19.63
2019-05-20T23:02:30.046Z,19.46
2019-05-20T23:07:35.950Z,19.44
2019-05-20T23:12:41.904Z,19.41
2019-05-20T23:17:47.865Z,19.41
2019-05-20T23:22:53.920Z,19.53
2019-05-20T23:27:59.828Z,19.42
2019-05-20T23:33:05.769Z,19.32
2019-05-20T23:38:11.746Z,19.25
2019-05-20T23:43:17.811Z,19.24
2019-05-20T23:48:23.876Z,18.99
2019-05-20T23:53:29.954Z,18.98
2019-05-20T23:58:35.822Z,19.00
